Terminal Aerodrome Forecast
Issued by NWS Charleston, WV

Current Version | Previous Version | Graphics & Text | Print | Product List | Glossary On
Versions: 1 2 3 4 5 6 7 8 9 10 11 12 13 14 15 16 17 18 19 20 21 22
000
FTUS41 KRLX 220906 AAA
TAFCRW
TAF AMD
KCRW 220906Z 2209/2306 VRB03KT 2SM BR FEW001 SCT030
     FM221100 VRB03KT 3SM BR SCT001
      TEMPO 2212/2213 6SM BR
     FM221300 25006KT P6SM FEW200
     FM221800 25009KT P6SM BKN050
     FM230200 30004KT P6SM SCT045=

USA.gov is the U.S. government's official web portal to all federal, state and local government web resources and services.